Vremea acum in Chișineu Criș - Romania

Vrei sa afli care e starea vremii acum in Arad - Romania? Dorim sa iti furnizam starea vremii pentru Arad - Romania. Starea vremii Arad - Romania pentru astazi.

Vremea acum in Chișineu Criș

Temperatura: 24.2 °C

Este: Senin
Se simte ca: 24.9 °C
Innorat: 0 %
Precipitatii: 0 %
Presiune atmosferica: 1017 hPa
Umiditate: 27%
Vizibilitate: 10 km
Vantul bate din NNE cu 4 km/h

Evolutia vremii in Chișineu Criș pe ore

Ora: 19:00
Senin
Temperatura: 21.6°C
Sansa de precipitatii: 0%
Ora Descriere Temp Se simte Precipitatii Umiditate Vant
00:00Senin10.4°10.1°0%63%WSW 5.4 KM/H
01:00Senin9.7°10°0%67%WSW 3.2 KM/H
02:00Senin0%70%SW 2.5 KM/H
03:00Senin8.5°8.5°0%72%S 2.9 KM/H
04:00Senin8.2°7.7°0%75%SSE 5 KM/H
05:00Senin7.8°6.8°0%77%SSE 6.5 KM/H
06:00Senin7.3°6.2°0%79%SSE 6.8 KM/H
07:00Senin7.6°6.4°0%80%SSE 7.2 KM/H
08:00Senin10.1°9.6°0%72%SSE 6.1 KM/H
09:00Senin12.6°12.9°0%64%S 4.3 KM/H
10:00Senin15°15°0%58%SSW 1.8 KM/H
11:00Senin17.1°17.1°0%53%SSW 1.1 KM/H
12:00Senin18.9°18.9°0%50%NW 2.5 KM/H
13:00Senin20.1°20.1°0%47%NNW 4.7 KM/H
14:00Senin21°21°0%45%N 5.8 KM/H
15:00Senin21.8°21.8°0%42%N 5 KM/H
16:00Senin24.2°24.1°0%27%NNE 4 KM/H
17:00Senin22.2°24°0%40%N 2.5 KM/H
18:00Senin21.9°21.9°0%40%WNW 1.4 KM/H
19:00Senin21.6°21.6°0%47%WSW 1.1 KM/H
20:00Senin18.4°18.5°0%53%SW 2.5 KM/H
21:00Senin15.8°15.8°0%56%SW 4.3 KM/H
22:00Senin14.6°14.6°0%61%SSW 6.5 KM/H
23:00Senin13.5°13.1°0%66%SSW 8.6 KM/H




tutorials